createdAt,value
2017-11-08T00:00:52.433Z,51.17
2017-11-08T00:01:54.965Z,47.28
2017-11-08T00:02:57.482Z,49.63
2017-11-08T00:04:00.045Z,53.45
2017-11-08T00:05:02.575Z,45.95
2017-11-08T00:06:05.106Z,45.30
2017-11-08T00:07:07.625Z,45.85
2017-11-08T00:08:13.729Z,45.42
2017-11-08T00:09:16.276Z,53.50
2017-11-08T00:10:18.809Z,50.50
2017-11-08T00:11:22.124Z,42.13
2017-11-08T00:12:24.642Z,46.88
2017-11-08T00:13:27.170Z,45.53
2017-11-08T00:14:29.725Z,47.03
2017-11-08T00:15:32.245Z,46.92
2017-11-08T00:16:38.347Z,49.65
2017-11-08T00:17:40.880Z,53.78
2017-11-08T00:18:43.428Z,55.53
2017-11-08T00:19:46.714Z,48.38
2017-11-08T00:20:50.190Z,50.63
2017-11-08T00:21:53.493Z,50.50
2017-11-08T00:22:56.785Z,54.50
2017-11-08T00:24:00.072Z,48.22
2017-11-08T00:25:02.622Z,51.75
2017-11-08T00:26:05.914Z,48.10
2017-11-08T00:27:09.194Z,50.22
2017-11-08T00:28:12.487Z,58.42
2017-11-08T00:29:15.038Z,52.67
2017-11-08T00:30:18.447Z,50.05
2017-11-08T00:31:21.020Z,44.13
2017-11-08T00:32:23.544Z,48.30
2017-11-08T00:33:26.258Z,49.78
2017-11-08T00:34:28.788Z,46.72
2017-11-08T00:35:31.320Z,42.33
2017-11-08T00:36:33.861Z,47.40
2017-11-08T00:37:36.381Z,39.00
2017-11-08T00:38:38.938Z,45.12
2017-11-08T00:39:41.464Z,39.55
2017-11-08T00:40:43.985Z,40.08
2017-11-08T00:41:47.310Z,41.90
2017-11-08T00:42:49.825Z,40.78
2017-11-08T00:43:52.346Z,40.85
2017-11-08T00:44:54.862Z,37.65
2017-11-08T00:45:58.154Z,42.83
2017-11-08T00:47:01.490Z,42.38
2017-11-08T00:48:03.999Z,43.92
2017-11-08T00:49:07.289Z,34.75
2017-11-08T00:50:10.582Z,41.03
2017-11-08T00:51:13.873Z,39.95
2017-11-08T00:52:16.430Z,37.15
2017-11-08T00:53:19.725Z,37.63
2017-11-08T00:54:22.241Z,38.25
2017-11-08T00:55:24.758Z,37.28
2017-11-08T00:56:27.327Z,45.80
2017-11-08T00:57:35.418Z,39.67
2017-11-08T00:58:37.950Z,46.25
2017-11-08T00:59:40.479Z,35.05
2017-11-08T01:00:44.844Z,39.63
2017-11-08T01:01:48.177Z,33.78
2017-11-08T01:02:50.707Z,53.08
2017-11-08T01:03:53.239Z,45.33
2017-11-08T01:04:55.768Z,35.25
2017-11-08T01:05:58.295Z,38.75
2017-11-08T01:07:01.626Z,40.47
2017-11-08T01:08:04.153Z,38.15
2017-11-08T01:09:06.673Z,40.30
2017-11-08T01:10:09.225Z,39.85
2017-11-08T01:11:11.741Z,35.35
2017-11-08T01:12:14.310Z,37.60
2017-11-08T01:13:17.596Z,41.80
2017-11-08T01:14:20.882Z,42.58
2017-11-08T01:15:24.172Z,37.35
2017-11-08T01:16:26.706Z,38.50
2017-11-08T01:17:29.273Z,37.80
2017-11-08T01:18:31.793Z,48.87
2017-11-08T01:19:34.348Z,42.67
2017-11-08T01:20:36.869Z,45.28
2017-11-08T01:21:39.389Z,35.80
2017-11-08T01:22:41.928Z,45.00
2017-11-08T01:23:44.626Z,46.72
2017-11-08T01:24:47.146Z,40.90
2017-11-08T01:25:50.438Z,45.47
2017-11-08T01:26:53.820Z,41.78
2017-11-08T01:27:56.395Z,38.65
2017-11-08T01:28:59.704Z,39.38
2017-11-08T01:30:02.258Z,47.75
2017-11-08T01:31:04.829Z,43.05
2017-11-08T01:32:07.353Z,42.10
2017-11-08T01:33:09.873Z,53.03
2017-11-08T01:34:12.396Z,45.88
2017-11-08T01:35:16.462Z,43.70
2017-11-08T01:36:21.804Z,44.17
2017-11-08T01:37:30.061Z,51.05
2017-11-08T01:38:32.594Z,47.30
2017-11-08T01:39:39.852Z,49.35
2017-11-08T01:40:44.203Z,49.38
2017-11-08T01:41:48.670Z,52.35
2017-11-08T01:42:51.199Z,47.78
2017-11-08T01:43:54.515Z,43.75
2017-11-08T01:44:57.039Z,46.03
2017-11-08T01:45:59.562Z,42.40
2017-11-08T01:47:02.146Z,44.13
2017-11-08T01:48:09.342Z,43.60
2017-11-08T01:49:11.871Z,44.88
2017-11-08T01:50:14.390Z,50.12
2017-11-08T01:51:16.925Z,48.40
2017-11-08T01:52:20.274Z,50.55
2017-11-08T01:53:22.797Z,46.85
2017-11-08T01:54:25.321Z,54.33
2017-11-08T01:55:27.837Z,49.40
2017-11-08T01:56:30.368Z,44.10
2017-11-08T01:57:33.707Z,53.75
2017-11-08T01:58:36.226Z,46.80
2017-11-08T01:59:39.514Z,45.97
2017-11-08T02:00:42.789Z,41.83
2017-11-08T02:01:46.074Z,44.80
2017-11-08T02:02:49.403Z,42.17
2017-11-08T02:03:51.966Z,43.47
2017-11-08T02:04:54.520Z,51.58
2017-11-08T02:05:57.069Z,49.20
2017-11-08T02:06:59.587Z,51.35
2017-11-08T02:08:02.107Z,48.90
2017-11-08T02:09:06.423Z,49.70
2017-11-08T02:10:08.950Z,47.33
2017-11-08T02:11:11.529Z,47.83
2017-11-08T02:12:14.813Z,49.55
2017-11-08T02:13:18.094Z,51.15
2017-11-08T02:14:21.390Z,39.53
2017-11-08T02:15:24.032Z,46.30
2017-11-08T02:16:26.742Z,54.42
2017-11-08T02:17:29.267Z,46.37
2017-11-08T02:18:36.777Z,44.75
2017-11-08T02:19:39.292Z,42.40
2017-11-08T02:20:41.814Z,44.42
2017-11-08T02:21:44.348Z,42.22
2017-11-08T02:22:46.867Z,44.88
2017-11-08T02:23:49.430Z,42.85
2017-11-08T02:24:55.993Z,48.28
2017-11-08T02:25:58.505Z,44.35
2017-11-08T02:27:05.908Z,39.85
2017-11-08T02:28:10.141Z,41.03
2017-11-08T02:29:12.717Z,43.60
2017-11-08T02:30:15.233Z,36.53
2017-11-08T02:31:18.517Z,45.60
2017-11-08T02:32:21.820Z,41.70
2017-11-08T02:33:24.341Z,53.00
2017-11-08T02:34:26.909Z,41.40
2017-11-08T02:35:29.421Z,44.70
2017-11-08T02:36:31.955Z,38.85
2017-11-08T02:37:37.049Z,52.85
2017-11-08T02:38:39.574Z,41.47
2017-11-08T02:39:42.122Z,48.55
2017-11-08T02:40:45.453Z,46.05
2017-11-08T02:41:47.989Z,44.47
2017-11-08T02:42:50.522Z,41.72
2017-11-08T02:43:53.821Z,41.53
2017-11-08T02:44:57.105Z,46.63
2017-11-08T02:46:00.425Z,45.97
2017-11-08T02:47:02.950Z,42.72
2017-11-08T02:48:05.478Z,45.12
2017-11-08T02:49:08.002Z,46.17
2017-11-08T02:50:11.280Z,52.35
2017-11-08T02:51:14.602Z,48.67
2017-11-08T02:52:17.131Z,49.38
2017-11-08T02:53:21.558Z,43.42
2017-11-08T02:54:24.114Z,41.45
2017-11-08T02:55:26.760Z,48.25
2017-11-08T02:56:29.283Z,46.47
2017-11-08T02:57:31.805Z,44.05
2017-11-08T02:58:34.477Z,46.60
2017-11-08T02:59:43.671Z,49.17
2017-11-08T03:00:47.002Z,41.15
2017-11-08T03:01:49.518Z,42.13
2017-11-08T03:02:52.036Z,47.67
2017-11-08T03:03:54.580Z,46.40
2017-11-08T03:04:57.942Z,45.97
2017-11-08T03:06:00.465Z,45.12
2017-11-08T03:07:02.990Z,47.75
2017-11-08T03:08:06.274Z,44.83
2017-11-08T03:09:09.561Z,43.65
2017-11-08T03:10:12.893Z,51.60
2017-11-08T03:11:15.409Z,49.15
2017-11-08T03:12:18.695Z,52.17
2017-11-08T03:13:21.991Z,45.12
2017-11-08T03:14:24.513Z,44.28
2017-11-08T03:15:27.076Z,47.35
2017-11-08T03:16:29.593Z,41.28
2017-11-08T03:17:32.114Z,46.97
2017-11-08T03:18:34.635Z,48.30
2017-11-08T03:19:37.162Z,43.60
2017-11-08T03:20:40.489Z,43.63
2017-11-08T03:21:43.018Z,53.42
2017-11-08T03:22:46.309Z,47.62
2017-11-08T03:23:49.601Z,43.50
2017-11-08T03:24:52.119Z,44.40
2017-11-08T03:25:54.690Z,43.87
2017-11-08T03:26:57.210Z,46.13
2017-11-08T03:27:59.735Z,45.97
2017-11-08T03:29:02.258Z,41.97
2017-11-08T03:30:04.783Z,47.42
2017-11-08T03:31:08.113Z,49.40
2017-11-08T03:32:10.633Z,50.42
2017-11-08T03:33:13.918Z,48.00
2017-11-08T03:34:17.213Z,48.28
2017-11-08T03:35:19.742Z,43.65
2017-11-08T03:36:22.314Z,45.95
2017-11-08T03:37:24.828Z,48.20
2017-11-08T03:38:27.349Z,58.92
2017-11-08T03:39:29.982Z,48.00
2017-11-08T03:40:32.502Z,53.63
2017-11-08T03:41:35.819Z,53.95
2017-11-08T03:42:38.343Z,54.13
2017-11-08T03:43:41.636Z,89.22
2017-11-08T03:44:44.923Z,79.15
2017-11-08T03:45:48.253Z,111.30
2017-11-08T03:46:50.782Z,96.30
2017-11-08T03:47:53.305Z,95.10
2017-11-08T03:48:55.828Z,120.28
2017-11-08T03:49:58.371Z,116.37
2017-11-08T03:51:01.812Z,159.07
2017-11-08T03:52:04.395Z,174.95
2017-11-08T03:53:06.927Z,126.18
2017-11-08T03:54:09.458Z,209.70
2017-11-08T03:55:12.741Z,165.35
2017-11-08T03:56:16.043Z,164.55
2017-11-08T03:57:18.606Z,159.85
2017-11-08T03:58:21.128Z,159.02
2017-11-08T03:59:23.649Z,154.30
2017-11-08T04:00:26.161Z,119.97
2017-11-08T04:01:28.690Z,65.07
2017-11-08T04:02:31.253Z,68.43
2017-11-08T04:03:33.781Z,121.75
2017-11-08T04:04:37.078Z,99.82
2017-11-08T04:05:39.610Z,71.20
2017-11-08T04:06:42.126Z,86.05
2017-11-08T04:07:44.677Z,60.10
2017-11-08T04:08:47.233Z,53.78
2017-11-08T04:09:50.519Z,49.80
2017-11-08T04:10:53.811Z,53.50
2017-11-08T04:11:56.340Z,59.00
2017-11-08T04:12:58.853Z,84.87
2017-11-08T04:14:01.410Z,60.50
2017-11-08T04:15:03.931Z,54.15
2017-11-08T04:16:06.455Z,53.83
2017-11-08T04:17:08.986Z,209.48
2017-11-08T04:18:12.277Z,131.15
2017-11-08T04:19:15.602Z,76.87
2017-11-08T04:20:18.158Z,124.12
2017-11-08T04:21:20.726Z,83.85
2017-11-08T04:22:23.249Z,76.15
2017-11-08T04:23:25.774Z,82.35
2017-11-08T04:24:28.298Z,157.62
2017-11-08T04:25:31.581Z,131.23
2017-11-08T04:26:34.898Z,111.90
2017-11-08T04:27:37.507Z,73.03
2017-11-08T04:28:40.833Z,115.45
2017-11-08T04:29:43.349Z,92.37
2017-11-08T04:30:45.867Z,82.53
2017-11-08T04:31:48.400Z,83.70
2017-11-08T04:32:51.684Z,100.95
2017-11-08T04:33:55.018Z,131.23
2017-11-08T04:34:57.541Z,91.47
2017-11-08T04:36:00.825Z,66.40
2017-11-08T04:37:04.109Z,70.78
2017-11-08T04:38:07.441Z,59.30
2017-11-08T04:39:09.965Z,60.08
2017-11-08T04:40:13.254Z,60.08
2017-11-08T04:41:15.778Z,59.08
2017-11-08T04:42:18.302Z,59.65
2017-11-08T04:43:20.864Z,60.55
2017-11-08T04:44:23.397Z,78.70
2017-11-08T04:45:26.681Z,65.75
2017-11-08T04:46:29.995Z,73.95
2017-11-08T04:47:32.514Z,60.95
2017-11-08T04:48:35.074Z,65.32
2017-11-08T04:49:37.613Z,66.07
2017-11-08T04:50:40.158Z,69.68
2017-11-08T04:51:42.674Z,74.35
2017-11-08T04:52:45.195Z,70.03
2017-11-08T04:53:47.745Z,62.35
2017-11-08T04:54:50.274Z,58.70
2017-11-08T04:55:52.798Z,69.72
2017-11-08T04:56:55.328Z,59.92
2017-11-08T04:57:58.610Z,65.32
2017-11-08T04:59:01.931Z,61.28
2017-11-08T05:00:04.454Z,72.60
2017-11-08T05:01:07.771Z,59.08
2017-11-08T05:02:10.303Z,63.58
2017-11-08T05:03:13.631Z,64.00
2017-11-08T05:04:16.187Z,67.87
2017-11-08T05:05:18.707Z,65.00
2017-11-08T05:06:21.229Z,69.87
2017-11-08T05:07:23.762Z,55.25
2017-11-08T05:08:27.056Z,67.35
2017-11-08T05:09:29.621Z,57.70
2017-11-08T05:10:32.927Z,66.90
2017-11-08T05:11:35.457Z,83.97
2017-11-08T05:12:38.750Z,61.85
2017-11-08T05:13:42.032Z,86.43
2017-11-08T05:14:45.353Z,131.68
2017-11-08T05:15:47.880Z,135.52
2017-11-08T05:16:51.174Z,109.53
2017-11-08T05:17:54.508Z,75.55
2017-11-08T05:18:57.165Z,72.78
2017-11-08T05:19:59.691Z,54.42
2017-11-08T05:21:02.993Z,54.58
2017-11-08T05:22:05.518Z,50.75
2017-11-08T05:23:08.083Z,54.47
2017-11-08T05:24:10.612Z,55.63
2017-11-08T05:25:13.164Z,60.97
2017-11-08T05:26:15.726Z,50.25
2017-11-08T05:27:18.268Z,49.63
2017-11-08T05:28:20.804Z,49.90
2017-11-08T05:29:23.328Z,57.80
2017-11-08T05:30:25.850Z,51.67
2017-11-08T05:31:28.419Z,49.97
2017-11-08T05:32:30.968Z,61.17
2017-11-08T05:33:33.479Z,74.55
2017-11-08T05:34:37.009Z,88.97
2017-11-08T05:35:39.529Z,67.65
2017-11-08T05:36:42.097Z,62.72
2017-11-08T05:37:44.617Z,51.55
2017-11-08T05:38:47.138Z,52.47
2017-11-08T05:39:49.660Z,52.70
2017-11-08T05:40:52.187Z,52.28
2017-11-08T05:41:54.741Z,56.55
2017-11-08T05:42:57.294Z,65.50
2017-11-08T05:43:59.842Z,67.78
2017-11-08T05:45:03.131Z,68.75
2017-11-08T05:46:06.418Z,62.55
2017-11-08T05:47:09.743Z,66.62
2017-11-08T05:48:12.262Z,57.60
2017-11-08T05:49:15.550Z,98.87
2017-11-08T05:50:18.845Z,78.80
2017-11-08T05:51:21.372Z,95.62
2017-11-08T05:52:23.935Z,75.07
2017-11-08T05:53:26.464Z,57.97
2017-11-08T05:54:28.990Z,65.93
2017-11-08T05:55:32.282Z,71.47
2017-11-08T05:56:35.596Z,66.05
2017-11-08T05:57:38.123Z,65.45
2017-11-08T05:58:41.464Z,67.62
2017-11-08T05:59:43.993Z,68.62
2017-11-08T06:00:46.518Z,63.35
2017-11-08T06:01:49.046Z,63.22
2017-11-08T06:02:51.569Z,68.07
2017-11-08T06:03:54.886Z,71.45
2017-11-08T06:04:57.442Z,64.43
2017-11-08T06:05:59.967Z,71.50
2017-11-08T06:07:02.514Z,63.08
2017-11-08T06:08:05.062Z,62.03
2017-11-08T06:09:07.580Z,64.62
2017-11-08T06:10:10.915Z,64.07
2017-11-08T06:11:13.433Z,61.37
2017-11-08T06:12:16.729Z,54.90
2017-11-08T06:13:20.013Z,56.10
2017-11-08T06:14:23.296Z,52.67
2017-11-08T06:15:26.613Z,55.80
2017-11-08T06:16:29.158Z,51.20
2017-11-08T06:17:31.682Z,48.58
2017-11-08T06:18:34.208Z,59.10
2017-11-08T06:19:36.741Z,57.20
2017-11-08T06:20:40.076Z,58.22
2017-11-08T06:21:42.618Z,60.85
2017-11-08T06:22:45.138Z,55.05
2017-11-08T06:23:47.655Z,52.78
2017-11-08T06:24:50.173Z,48.90
2017-11-08T06:25:53.485Z,50.47
2017-11-08T06:26:56.029Z,51.53
2017-11-08T06:27:59.324Z,48.42
2017-11-08T06:29:02.658Z,53.53
2017-11-08T06:30:05.187Z,49.40
2017-11-08T06:31:07.704Z,69.95
2017-11-08T06:32:10.226Z,70.90
2017-11-08T06:33:12.742Z,65.45
2017-11-08T06:34:15.298Z,63.40
2017-11-08T06:35:17.852Z,57.10
2017-11-08T06:36:20.366Z,72.28
2017-11-08T06:37:23.645Z,63.33
2017-11-08T06:38:26.930Z,52.38
2017-11-08T06:39:30.214Z,53.03
2017-11-08T06:40:33.551Z,66.35
2017-11-08T06:41:36.076Z,72.37
2017-11-08T06:42:39.353Z,47.95
2017-11-08T06:43:41.882Z,54.13
2017-11-08T06:44:44.407Z,56.60
2017-11-08T06:45:47.078Z,60.20
2017-11-08T06:46:49.601Z,66.95
2017-11-08T06:47:52.893Z,63.45
2017-11-08T06:48:56.182Z,63.90
2017-11-08T06:49:59.464Z,65.20
2017-11-08T06:51:02.820Z,68.80
2017-11-08T06:52:05.339Z,60.70
2017-11-08T06:53:07.904Z,73.47
2017-11-08T06:54:10.437Z,101.22
2017-11-08T06:55:13.725Z,95.75
2017-11-08T06:56:17.039Z,83.80
2017-11-08T06:57:21.493Z,66.18
2017-11-08T06:58:24.057Z,65.20
2017-11-08T06:59:26.584Z,67.82
2017-11-08T07:00:29.110Z,65.43
2017-11-08T07:01:31.631Z,61.63
2017-11-08T07:02:34.153Z,67.55
2017-11-08T07:03:37.462Z,69.78
2017-11-08T07:04:40.023Z,72.43
2017-11-08T07:05:42.546Z,66.12
2017-11-08T07:06:45.083Z,57.60
2017-11-08T07:07:47.643Z,64.75
2017-11-08T07:08:50.161Z,62.15
2017-11-08T07:09:53.467Z,66.30
2017-11-08T07:10:55.993Z,60.55
2017-11-08T07:11:58.537Z,56.90
2017-11-08T07:13:01.061Z,54.15
2017-11-08T07:14:04.399Z,67.25
2017-11-08T07:15:06.912Z,57.08
2017-11-08T07:16:10.202Z,63.17
2017-11-08T07:17:12.719Z,60.83
2017-11-08T07:18:15.306Z,60.42
2017-11-08T07:19:17.861Z,53.63
2017-11-08T07:20:20.385Z,67.65
2017-11-08T07:21:22.905Z,66.18
2017-11-08T07:22:25.421Z,66.60
2017-11-08T07:23:27.969Z,72.12
2017-11-08T07:24:30.494Z,67.53
2017-11-08T07:25:33.016Z,67.68
2017-11-08T07:26:35.541Z,63.10
2017-11-08T07:27:38.877Z,58.87
2017-11-08T07:28:41.398Z,66.20
2017-11-08T07:29:44.700Z,59.05
2017-11-08T07:30:47.220Z,52.25
2017-11-08T07:31:49.758Z,51.95
2017-11-08T07:32:52.325Z,51.28
2017-11-08T07:33:54.850Z,59.67
2017-11-08T07:34:58.138Z,59.17
2017-11-08T07:36:01.422Z,55.25
2017-11-08T07:37:03.957Z,51.50
2017-11-08T07:38:06.521Z,52.62
2017-11-08T07:39:09.049Z,51.55
2017-11-08T07:40:11.577Z,62.38
2017-11-08T07:41:14.865Z,67.60
2017-11-08T07:42:18.149Z,56.55
2017-11-08T07:43:21.469Z,51.63
2017-11-08T07:44:24.017Z,53.13
2017-11-08T07:45:26.541Z,67.12
2017-11-08T07:46:29.068Z,56.70
2017-11-08T07:47:31.593Z,59.40
2017-11-08T07:48:34.913Z,61.70
2017-11-08T07:49:37.433Z,51.13
2017-11-08T07:50:39.955Z,59.83
2017-11-08T07:51:42.477Z,49.03
2017-11-08T07:52:45.765Z,55.58
2017-11-08T07:53:49.085Z,62.90
2017-11-08T07:54:52.428Z,52.00
2017-11-08T07:56:01.451Z,52.97
2017-11-08T07:57:04.739Z,55.08
2017-11-08T07:58:07.267Z,54.10
2017-11-08T07:59:09.817Z,54.83
2017-11-08T08:00:12.334Z,54.97
2017-11-08T08:01:14.886Z,49.95
2017-11-08T08:02:18.168Z,52.40
2017-11-08T08:03:20.685Z,65.07
2017-11-08T08:04:23.229Z,58.40
2017-11-08T08:05:25.753Z,62.72
2017-11-08T08:06:28.270Z,52.67
2017-11-08T08:07:36.766Z,50.95
2017-11-08T08:08:41.240Z,50.70
2017-11-08T08:09:43.768Z,59.30
2017-11-08T08:10:46.282Z,56.97
2017-11-08T08:11:49.754Z,52.22
2017-11-08T08:12:53.050Z,93.05
2017-11-08T08:13:59.214Z,77.70
2017-11-08T08:15:01.811Z,70.15
2017-11-08T08:16:04.366Z,54.42
2017-11-08T08:17:06.885Z,54.58
2017-11-08T08:18:09.408Z,89.43
2017-11-08T08:19:11.935Z,78.68
2017-11-08T08:20:15.246Z,72.12
2017-11-08T08:21:23.759Z,64.60
2017-11-08T08:22:26.274Z,66.20
2017-11-08T08:23:28.790Z,59.38
2017-11-08T08:24:31.325Z,108.40
2017-11-08T08:25:34.645Z,74.90
2017-11-08T08:26:42.902Z,59.40
2017-11-08T08:27:45.421Z,54.72
2017-11-08T08:28:47.941Z,52.58
2017-11-08T08:29:51.222Z,54.60
2017-11-08T08:30:53.788Z,66.65
2017-11-08T08:31:57.113Z,58.05
2017-11-08T08:32:59.662Z,68.05
2017-11-08T08:34:02.183Z,58.03
2017-11-08T08:35:04.708Z,59.25
2017-11-08T08:36:07.221Z,55.55
2017-11-08T08:37:09.770Z,59.25
2017-11-08T08:38:12.349Z,53.72
2017-11-08T08:39:14.874Z,69.15
2017-11-08T08:40:17.393Z,53.35
2017-11-08T08:41:19.977Z,60.67
2017-11-08T08:42:23.262Z,58.15
2017-11-08T08:43:26.574Z,63.05
2017-11-08T08:44:29.085Z,62.78
2017-11-08T08:45:31.609Z,64.28
2017-11-08T08:46:34.130Z,65.07
2017-11-08T08:47:37.438Z,61.72
2017-11-08T08:48:40.005Z,53.70
2017-11-08T08:49:42.533Z,68.00
2017-11-08T08:50:51.700Z,74.35
2017-11-08T08:51:54.226Z,67.18
2017-11-08T08:52:56.759Z,68.97
2017-11-08T08:53:59.307Z,60.15
2017-11-08T08:55:01.830Z,67.65
2017-11-08T08:56:05.124Z,61.75
2017-11-08T08:57:08.411Z,60.17
2017-11-08T08:58:11.702Z,60.05
2017-11-08T08:59:15.118Z,61.92
2017-11-08T09:00:20.619Z,72.07
2017-11-08T09:01:23.910Z,63.63
2017-11-08T09:02:32.259Z,58.17
2017-11-08T09:03:34.778Z,60.72
2017-11-08T09:04:37.341Z,64.57
2017-11-08T09:05:40.626Z,61.50
2017-11-08T09:06:43.917Z,56.03
2017-11-08T09:07:46.545Z,55.17
2017-11-08T09:08:49.058Z,60.05
2017-11-08T09:09:51.616Z,57.90
2017-11-08T09:10:54.279Z,64.30
2017-11-08T09:11:57.562Z,75.37
2017-11-08T09:13:00.094Z,56.72
2017-11-08T09:14:02.627Z,56.15
2017-11-08T09:15:05.194Z,56.67
2017-11-08T09:16:07.709Z,57.50
2017-11-08T09:17:11.035Z,60.28
2017-11-08T09:18:13.554Z,57.42
2017-11-08T09:19:16.845Z,51.97
2017-11-08T09:20:27.488Z,49.50
2017-11-08T09:21:31.857Z,48.53
2017-11-08T09:22:34.413Z,48.67
2017-11-08T09:23:38.832Z,52.62
2017-11-08T09:24:47.202Z,54.50
2017-11-08T09:25:50.500Z,48.72
2017-11-08T09:26:58.750Z,59.15
2017-11-08T09:28:01.281Z,53.47
2017-11-08T09:29:03.801Z,53.35
2017-11-08T09:30:09.034Z,52.80
2017-11-08T09:31:17.922Z,54.97
2017-11-08T09:32:20.450Z,55.50
2017-11-08T09:33:22.968Z,46.13
2017-11-08T09:34:25.537Z,55.42
2017-11-08T09:35:28.057Z,51.15
2017-11-08T09:36:30.573Z,53.15
2017-11-08T09:37:37.046Z,48.45
2017-11-08T09:38:40.336Z,57.42
2017-11-08T09:39:42.905Z,55.17
2017-11-08T09:40:45.423Z,50.28
2017-11-08T09:41:47.933Z,57.35
2017-11-08T09:42:50.490Z,54.65
2017-11-08T09:43:53.786Z,57.88
2017-11-08T09:44:56.307Z,60.35
2017-11-08T09:46:00.697Z,59.33
2017-11-08T09:47:03.258Z,57.20
2017-11-08T09:48:05.809Z,56.88
2017-11-08T09:49:09.225Z,59.67
2017-11-08T09:50:11.743Z,59.58
2017-11-08T09:51:14.259Z,56.00
2017-11-08T09:52:16.827Z,63.30
2017-11-08T09:53:19.350Z,59.50
2017-11-08T09:54:21.876Z,59.90
2017-11-08T09:55:24.394Z,61.25
2017-11-08T09:56:26.912Z,57.22
2017-11-08T09:57:29.473Z,57.40
2017-11-08T09:58:31.987Z,58.45
2017-11-08T09:59:37.430Z,62.83
2017-11-08T10:00:40.745Z,66.28
2017-11-08T10:01:44.066Z,63.58
2017-11-08T10:02:46.622Z,57.53
2017-11-08T10:03:50.007Z,55.40
2017-11-08T10:04:53.331Z,61.90
2017-11-08T10:05:55.855Z,59.92
2017-11-08T10:06:58.372Z,54.15
2017-11-08T10:08:00.945Z,57.83
2017-11-08T10:09:03.511Z,52.10
2017-11-08T10:10:06.092Z,51.63
2017-11-08T10:11:23.261Z,52.90
2017-11-08T10:12:25.927Z,53.90
2017-11-08T10:13:28.496Z,44.45
2017-11-08T10:14:37.774Z,56.37
2017-11-08T10:15:40.298Z,52.47
2017-11-08T10:16:48.635Z,57.92
2017-11-08T10:17:51.155Z,53.33
2017-11-08T10:18:53.733Z,55.55
2017-11-08T10:19:58.161Z,52.80
2017-11-08T10:21:01.463Z,54.47
2017-11-08T10:22:03.982Z,53.28
2017-11-08T10:23:06.518Z,51.63
2017-11-08T10:24:09.081Z,57.85
2017-11-08T10:25:12.379Z,53.50
2017-11-08T10:26:15.665Z,47.65
2017-11-08T10:27:18.951Z,55.67
2017-11-08T10:28:22.244Z,49.00
2017-11-08T10:29:24.951Z,56.95
2017-11-08T10:30:27.481Z,53.70
2017-11-08T10:31:29.997Z,54.17
2017-11-08T10:32:32.525Z,60.47
2017-11-08T10:33:35.053Z,55.05
2017-11-08T10:34:38.394Z,53.30
2017-11-08T10:35:40.928Z,53.25
2017-11-08T10:36:43.460Z,58.75
2017-11-08T10:37:46.760Z,64.30
2017-11-08T10:38:50.065Z,55.35
2017-11-08T10:39:52.621Z,59.58
2017-11-08T10:40:55.153Z,65.95
2017-11-08T10:41:57.707Z,60.28
2017-11-08T10:43:00.256Z,65.97
2017-11-08T10:44:02.787Z,66.32
2017-11-08T10:45:05.333Z,56.65
2017-11-08T10:46:07.852Z,61.70
2017-11-08T10:47:10.384Z,59.50
2017-11-08T10:48:12.959Z,60.35
2017-11-08T10:49:21.440Z,71.55
2017-11-08T10:50:23.959Z,62.38
2017-11-08T10:51:26.619Z,67.97
2017-11-08T10:52:29.148Z,71.43
2017-11-08T10:53:31.702Z,70.03
2017-11-08T10:54:34.224Z,65.10
2017-11-08T10:55:36.754Z,67.72
2017-11-08T10:56:39.282Z,60.72
2017-11-08T10:57:41.810Z,71.12
2017-11-08T10:58:44.383Z,74.97
2017-11-08T10:59:51.041Z,65.78
2017-11-08T11:00:53.555Z,79.40
2017-11-08T11:01:56.074Z,71.68
2017-11-08T11:02:58.599Z,71.32
2017-11-08T11:04:01.154Z,81.00
2017-11-08T11:05:03.670Z,73.20
2017-11-08T11:06:06.198Z,75.60
2017-11-08T11:07:08.740Z,70.15
2017-11-08T11:08:11.315Z,77.93
2017-11-08T11:09:13.838Z,67.85
2017-11-08T11:10:16.365Z,71.93
2017-11-08T11:11:18.898Z,66.87
2017-11-08T11:12:24.299Z,69.47
2017-11-08T11:13:26.855Z,76.20
2017-11-08T11:14:29.383Z,79.57
2017-11-08T11:15:31.915Z,81.53
2017-11-08T11:16:35.214Z,78.12
2017-11-08T11:17:37.793Z,79.35
2017-11-08T11:18:40.315Z,85.25
2017-11-08T11:19:47.652Z,79.45
2017-11-08T11:20:50.195Z,79.30
2017-11-08T11:21:58.503Z,82.53
2017-11-08T11:23:01.075Z,80.25
2017-11-08T11:24:03.601Z,70.68
2017-11-08T11:25:06.126Z,74.85
2017-11-08T11:26:08.646Z,81.97
2017-11-08T11:27:12.996Z,78.82
2017-11-08T11:28:15.560Z,83.15
2017-11-08T11:29:18.087Z,84.95
2017-11-08T11:30:25.651Z,87.97
2017-11-08T11:31:28.238Z,86.87
2017-11-08T11:32:31.530Z,77.75
2017-11-08T11:33:34.821Z,84.68
2017-11-08T11:34:38.155Z,85.87
2017-11-08T11:35:40.671Z,82.70
2017-11-08T11:36:43.969Z,73.25
2017-11-08T11:37:47.401Z,77.53
2017-11-08T11:38:49.935Z,82.00
2017-11-08T11:39:52.502Z,86.90
2017-11-08T11:40:55.023Z,78.57
2017-11-08T11:41:57.539Z,78.93
2017-11-08T11:43:00.090Z,82.72
2017-11-08T11:44:02.627Z,73.70
2017-11-08T11:45:05.919Z,83.87
2017-11-08T11:46:09.254Z,78.55
2017-11-08T11:47:11.774Z,78.50
2017-11-08T11:48:17.029Z,85.95
2017-11-08T11:49:19.546Z,80.03
2017-11-08T11:50:22.078Z,94.70
2017-11-08T11:51:25.422Z,86.90
2017-11-08T11:52:28.711Z,84.80
2017-11-08T11:53:32.019Z,82.70
2017-11-08T11:54:34.554Z,83.25
2017-11-08T11:55:37.854Z,86.70
2017-11-08T11:56:40.410Z,85.38
2017-11-08T11:57:43.702Z,88.43
2017-11-08T11:58:46.225Z,100.57
2017-11-08T11:59:48.795Z,88.80
2017-11-08T12:00:51.359Z,92.55
2017-11-08T12:01:53.896Z,89.75
2017-11-08T12:02:56.438Z,94.00
2017-11-08T12:03:58.972Z,100.15
2017-11-08T12:05:01.521Z,97.45
2017-11-08T12:06:04.060Z,83.37
2017-11-08T12:07:06.582Z,88.22
2017-11-08T12:08:09.878Z,80.22
2017-11-08T12:09:13.166Z,97.85
2017-11-08T12:10:16.482Z,90.10
2017-11-08T12:11:19.002Z,93.68
2017-11-08T12:12:22.296Z,114.07
2017-11-08T12:13:24.817Z,98.75
2017-11-08T12:14:27.340Z,93.28
2017-11-08T12:15:29.910Z,106.78
2017-11-08T12:16:32.442Z,101.07
2017-11-08T12:17:35.738Z,96.57
2017-11-08T12:18:39.029Z,106.68
2017-11-08T12:19:42.323Z,99.62
2017-11-08T12:20:44.891Z,107.70
2017-11-08T12:21:47.424Z,111.55
2017-11-08T12:22:50.732Z,92.95
2017-11-08T12:23:54.018Z,95.30
2017-11-08T12:24:56.551Z,111.05
2017-11-08T12:25:59.125Z,99.47
2017-11-08T12:27:05.411Z,99.57
2017-11-08T12:28:13.455Z,102.00
2017-11-08T12:29:16.021Z,102.07
2017-11-08T12:30:18.553Z,104.35
2017-11-08T12:31:21.077Z,104.90
2017-11-08T12:32:24.363Z,95.35
2017-11-08T12:33:26.883Z,97.82
2017-11-08T12:34:29.454Z,101.38
2017-11-08T12:35:31.989Z,106.18
2017-11-08T12:36:34.686Z,93.03
2017-11-08T12:37:37.211Z,97.78
2017-11-08T12:38:40.497Z,96.10
2017-11-08T12:39:49.648Z,106.93
2017-11-08T12:40:52.204Z,94.43
2017-11-08T12:41:54.722Z,94.95
2017-11-08T12:43:01.250Z,97.53
2017-11-08T12:44:03.806Z,100.68
2017-11-08T12:45:12.082Z,94.35
2017-11-08T12:46:14.609Z,89.75
2017-11-08T12:47:18.162Z,109.85
2017-11-08T12:48:20.696Z,107.72
2017-11-08T12:49:23.990Z,105.47
2017-11-08T12:50:28.309Z,101.68
2017-11-08T12:51:30.848Z,95.78
2017-11-08T12:52:34.210Z,108.57
2017-11-08T12:53:36.732Z,109.20
2017-11-08T12:54:39.250Z,107.97
2017-11-08T12:55:41.770Z,112.43
2017-11-08T12:56:44.290Z,111.97
2017-11-08T12:57:47.619Z,97.85
2017-11-08T12:58:50.141Z,98.05
2017-11-08T12:59:53.431Z,95.93
2017-11-08T13:00:56.733Z,101.15
2017-11-08T13:01:59.293Z,104.05
2017-11-08T13:03:01.869Z,106.03
2017-11-08T13:04:07.180Z,101.40
2017-11-08T13:05:10.470Z,97.47
2017-11-08T13:06:13.766Z,105.18
2017-11-08T13:07:16.289Z,99.35
2017-11-08T13:08:18.863Z,109.25
2017-11-08T13:09:21.382Z,98.43
2017-11-08T13:10:27.375Z,105.60
2017-11-08T13:11:35.738Z,101.35
2017-11-08T13:12:38.262Z,105.12
2017-11-08T13:13:41.606Z,105.95
2017-11-08T13:14:44.129Z,106.55
2017-11-08T13:15:46.654Z,97.57
2017-11-08T13:16:49.191Z,96.28
2017-11-08T13:17:51.714Z,94.93
2017-11-08T13:18:55.038Z,97.68
2017-11-08T13:19:57.561Z,92.07
2017-11-08T13:21:00.896Z,100.82
2017-11-08T13:22:03.420Z,93.85
2017-11-08T13:23:06.708Z,98.75
2017-11-08T13:24:09.243Z,99.78
2017-11-08T13:25:11.767Z,99.25
2017-11-08T13:26:14.328Z,86.97
2017-11-08T13:27:16.896Z,103.38
2017-11-08T13:28:19.420Z,111.70
2017-11-08T13:29:22.706Z,95.95
2017-11-08T13:30:25.990Z,91.70